createdAt,value
2018-04-28T00:01:50.018Z,97414.11
2018-04-28T00:04:18.289Z,97419.98
2018-04-28T00:06:46.559Z,97420.00
2018-04-28T00:09:15.590Z,97413.60
2018-04-28T00:11:43.845Z,97415.57
2018-04-28T00:14:12.848Z,97412.47
2018-04-28T00:16:50.936Z,97407.94
2018-04-28T00:19:30.576Z,97412.89
2018-04-28T00:22:01.720Z,97406.62
2018-04-28T00:24:46.334Z,97405.65
2018-04-28T00:31:04.996Z,97404.22
2018-04-28T00:33:38.920Z,97399.94
2018-04-28T00:36:20.287Z,97408.22
2018-04-28T00:38:58.975Z,97409.45
2018-04-28T00:41:44.019Z,97414.17
2018-04-28T00:44:13.934Z,97414.12
2018-04-28T00:49:54.234Z,97403.27
2018-04-28T00:52:23.256Z,97408.59
2018-04-28T00:55:03.208Z,97403.70
2018-04-28T00:57:51.559Z,97400.45
2018-04-28T01:00:48.021Z,97397.38
2018-04-28T01:06:20.261Z,97402.95
2018-04-28T01:08:48.546Z,97405.30
2018-04-28T01:11:19.315Z,97406.27
2018-04-28T01:13:55.706Z,97415.19
2018-04-28T01:16:23.966Z,97408.69
2018-04-28T01:19:12.668Z,97404.69
2018-04-28T01:21:41.639Z,97418.09
2018-04-28T01:27:36.420Z,97404.05
2018-04-28T01:33:13.854Z,97412.48
2018-04-28T01:35:49.826Z,97401.83
2018-04-28T01:38:43.058Z,97406.51
2018-04-28T01:41:21.799Z,97412.40
2018-04-28T01:43:57.255Z,97412.59
2018-04-28T01:46:28.936Z,97414.77
2018-04-28T01:48:59.771Z,97417.92
2018-04-28T01:51:30.563Z,97423.96
2018-04-28T01:54:32.353Z,97428.27
2018-04-28T01:57:10.192Z,97428.89
2018-04-28T01:59:52.032Z,97433.82
2018-04-28T02:02:27.847Z,97430.38
2018-04-28T02:04:57.576Z,97440.39
2018-04-28T02:07:29.062Z,97438.00
2018-04-28T02:09:58.083Z,97438.53
2018-04-28T02:12:32.274Z,97440.64
2018-04-28T02:15:24.823Z,97441.76
2018-04-28T02:17:57.979Z,97441.48
2018-04-28T02:20:38.480Z,97443.22
2018-04-28T02:23:22.300Z,97443.90
2018-04-28T02:25:51.432Z,97445.63
2018-04-28T02:28:38.169Z,97456.30
2018-04-28T02:34:32.326Z,97456.91
2018-04-28T02:40:27.449Z,97454.63
2018-04-28T02:42:59.431Z,97444.89
2018-04-28T02:45:38.476Z,97464.56
2018-04-28T02:48:12.294Z,97467.11
2018-04-28T02:50:47.125Z,97458.05
2018-04-28T02:53:28.031Z,97457.63
2018-04-28T03:02:30.795Z,97452.98
2018-04-28T03:08:18.533Z,97457.13
2018-04-28T03:11:02.604Z,97455.25
2018-04-28T03:13:39.118Z,97459.41
2018-04-28T03:16:10.918Z,97480.09
2018-04-28T03:18:41.688Z,97466.62
2018-04-28T03:21:17.501Z,97467.05
2018-04-28T03:27:06.367Z,97470.92
2018-04-28T03:29:34.627Z,97480.81
2018-04-28T03:32:04.251Z,97473.77
2018-04-28T03:34:35.936Z,97474.97
2018-04-28T03:37:10.483Z,97476.32
2018-04-28T03:39:58.986Z,97477.66
2018-04-28T03:45:39.583Z,97479.25
2018-04-28T03:48:13.167Z,97489.12
2018-04-28T03:53:52.739Z,97491.02
2018-04-28T03:56:23.495Z,97493.28
2018-04-28T03:59:09.654Z,97491.67
2018-04-28T04:04:55.244Z,97499.29
2018-04-28T04:07:27.491Z,97487.40
2018-04-28T04:09:57.122Z,97494.33
2018-04-28T04:12:32.990Z,97498.23
2018-04-28T04:15:18.076Z,97506.19
2018-04-28T04:21:13.731Z,97514.70
2018-04-28T04:27:07.412Z,97516.84
2018-04-28T04:32:54.599Z,97525.42
2018-04-28T04:35:44.279Z,97535.57
2018-04-28T04:38:31.347Z,97539.61
2018-04-28T04:44:30.910Z,97545.48
2018-04-28T04:50:33.681Z,97542.92
2018-04-28T04:57:00.150Z,97555.61
2018-04-28T04:59:36.949Z,97553.87
2018-04-28T05:05:35.651Z,97565.96
2018-04-28T05:11:34.414Z,97570.06
2018-04-28T05:14:20.120Z,97585.80
2018-04-28T05:20:00.768Z,97597.19
2018-04-28T05:26:09.169Z,97588.25
2018-04-28T05:38:38.004Z,97604.80
2018-04-28T05:44:44.766Z,97605.56
2018-04-28T05:47:31.422Z,97597.97
2018-04-28T05:53:18.360Z,97600.13
2018-04-28T05:56:01.228Z,97593.88
2018-04-28T05:59:01.903Z,97597.55
2018-04-28T06:01:42.415Z,97611.17
2018-04-28T06:04:27.451Z,97621.27
2018-04-28T06:07:08.464Z,97638.20
2018-04-28T06:10:08.215Z,97638.59
2018-04-28T06:12:55.315Z,97630.47
2018-04-28T06:15:38.991Z,97632.64
2018-04-28T06:18:40.631Z,97626.22
2018-04-28T06:21:09.674Z,97626.88
2018-04-28T06:23:37.950Z,97631.70
2018-04-28T06:26:06.408Z,97631.55
2018-04-28T06:28:35.252Z,97642.77
2018-04-28T06:31:03.554Z,97633.83
2018-04-28T06:33:31.802Z,97638.09
2018-04-28T06:36:00.807Z,97637.31
2018-04-28T06:38:29.833Z,97631.28
2018-04-28T06:40:58.107Z,97629.64
2018-04-28T06:43:26.350Z,97627.23
2018-04-28T06:45:54.703Z,97643.82
2018-04-28T06:48:24.451Z,97647.17
2018-04-28T06:50:53.468Z,97648.11
2018-04-28T06:53:21.726Z,97643.67
2018-04-28T06:55:49.995Z,97639.94
2018-04-28T06:58:19.008Z,97656.81
2018-04-28T07:00:47.267Z,97639.13
2018-04-28T07:03:15.513Z,97633.66
2018-04-28T07:05:43.771Z,97644.83
2018-04-28T07:08:12.799Z,97636.02
2018-04-28T07:10:41.095Z,97637.55
2018-04-28T07:13:09.323Z,97628.57
2018-04-28T07:15:38.359Z,97625.75
2018-04-28T07:18:07.375Z,97629.44
2018-04-28T07:20:35.633Z,97645.21
2018-04-28T07:23:03.904Z,97641.69
2018-04-28T07:25:32.410Z,97634.81
2018-04-28T07:28:00.915Z,97631.73
2018-04-28T07:30:29.381Z,97633.21
2018-04-28T07:32:57.637Z,97637.77
2018-04-28T07:35:25.912Z,97635.06
2018-04-28T07:37:54.143Z,97636.65
2018-04-28T07:40:22.401Z,97641.56
2018-04-28T07:42:50.636Z,97641.16
2018-04-28T07:45:18.939Z,97636.36
2018-04-28T07:47:47.171Z,97626.72
2018-04-28T07:50:15.439Z,97634.34
2018-04-28T07:52:43.702Z,97636.48
2018-04-28T07:55:11.975Z,97632.13
2018-04-28T07:57:41.010Z,97626.90
2018-04-28T08:00:10.042Z,97623.27
2018-04-28T08:02:38.274Z,97632.18
2018-04-28T08:05:06.544Z,97631.70
2018-04-28T08:07:34.786Z,97616.78
2018-04-28T08:10:03.821Z,97625.11
2018-04-28T08:12:32.050Z,97625.70
2018-04-28T08:15:00.307Z,97617.59
2018-04-28T08:17:28.567Z,97621.20
2018-04-28T08:19:57.579Z,97622.19
2018-04-28T08:22:26.576Z,97628.83
2018-04-28T08:24:55.607Z,97625.10
2018-04-28T08:27:24.605Z,97626.58
2018-04-28T08:29:52.836Z,97621.49
2018-04-28T08:32:21.125Z,97623.13
2018-04-28T08:34:49.383Z,97623.37
2018-04-28T08:37:17.681Z,97617.40
2018-04-28T08:39:46.643Z,97622.44
2018-04-28T08:42:15.677Z,97625.16
2018-04-28T08:44:44.703Z,97631.83
2018-04-28T08:47:12.944Z,97633.39
2018-04-28T08:49:41.385Z,97629.29
2018-04-28T08:52:09.657Z,97629.74
2018-04-28T08:54:37.896Z,97613.55
2018-04-28T08:57:06.163Z,97612.38
2018-04-28T08:59:52.146Z,97609.33
2018-04-28T09:02:20.516Z,97602.75
2018-04-28T09:04:49.542Z,97617.58
2018-04-28T09:07:44.469Z,97631.08
2018-04-28T09:10:12.732Z,97630.36
2018-04-28T09:12:41.083Z,97623.62
2018-04-28T09:15:09.510Z,97623.37
2018-04-28T09:17:38.520Z,97629.08
2018-04-28T09:20:07.618Z,97621.70
2018-04-28T09:22:36.610Z,97615.17
2018-04-28T09:25:05.633Z,97622.47
2018-04-28T09:27:34.652Z,97634.48
2018-04-28T09:30:02.920Z,97631.87
2018-04-28T09:32:31.165Z,97644.52
2018-04-28T09:34:59.402Z,97637.03
2018-04-28T09:37:28.810Z,97638.53
2018-04-28T09:39:57.861Z,97635.05
2018-04-28T09:42:26.158Z,97634.75
2018-04-28T09:44:54.415Z,97633.23
2018-04-28T09:47:24.081Z,97635.77
2018-04-28T09:49:52.329Z,97635.28
2018-04-28T09:52:21.408Z,97626.69
2018-04-28T09:54:50.423Z,97629.58
2018-04-28T09:57:19.543Z,97629.34
2018-04-28T09:59:48.555Z,97625.80
2018-04-28T10:02:18.652Z,97617.94
2018-04-28T10:04:46.896Z,97619.21
2018-04-28T10:07:15.253Z,97619.37
2018-04-28T10:09:44.991Z,97618.98
2018-04-28T10:12:13.276Z,97614.41
2018-04-28T10:14:42.434Z,97603.94
2018-04-28T10:17:10.717Z,97600.30
2018-04-28T10:19:38.976Z,97603.31
2018-04-28T10:22:08.017Z,97597.98
2018-04-28T10:24:36.255Z,97600.08
2018-04-28T10:27:05.308Z,97599.48
2018-04-28T10:29:33.575Z,97588.12
2018-04-28T10:32:01.851Z,97583.92
2018-04-28T10:34:30.121Z,97588.05
2018-04-28T10:36:59.165Z,97573.23
2018-04-28T10:39:27.396Z,97570.97
2018-04-28T10:41:55.653Z,97564.39
2018-04-28T10:44:23.894Z,97560.64
2018-04-28T10:46:52.912Z,97564.24
2018-04-28T10:49:22.684Z,97549.61
2018-04-28T10:51:50.946Z,97555.77
2018-04-28T10:54:19.204Z,97550.67
2018-04-28T10:56:48.217Z,97536.87
2018-04-28T10:59:18.347Z,97540.13
2018-04-28T11:01:47.370Z,97531.86
2018-04-28T11:04:15.612Z,97525.79
2018-04-28T11:06:43.867Z,97533.80
2018-04-28T11:09:12.147Z,97535.19
2018-04-28T11:11:40.445Z,97529.81
2018-04-28T11:14:08.679Z,97533.58
2018-04-28T11:16:36.923Z,97523.23
2018-04-28T11:19:05.202Z,97517.91
2018-04-28T11:21:33.447Z,97505.97
2018-04-28T11:24:01.701Z,97506.52
2018-04-28T11:26:30.702Z,97507.09
2018-04-28T11:28:58.942Z,97507.82
2018-04-28T11:31:27.199Z,97498.70
2018-04-28T11:33:55.427Z,97496.31
2018-04-28T11:36:24.411Z,97488.81
2018-04-28T11:38:52.659Z,97486.13
2018-04-28T11:41:20.910Z,97489.59
2018-04-28T11:43:49.939Z,97495.86
2018-04-28T11:46:18.188Z,97491.92
2018-04-28T11:48:46.444Z,97478.20
2018-04-28T11:51:14.722Z,97482.18
2018-04-28T11:53:42.980Z,97479.06
2018-04-28T11:56:11.276Z,97475.09
2018-04-28T11:58:39.523Z,97471.33
2018-04-28T12:01:07.781Z,97470.66
2018-04-28T12:03:36.266Z,97468.05
2018-04-28T12:06:04.519Z,97473.41
2018-04-28T12:08:33.549Z,97460.84
2018-04-28T12:11:02.555Z,97467.86
2018-04-28T12:13:30.809Z,97461.91
2018-04-28T12:15:59.799Z,97467.11
2018-04-28T12:18:28.051Z,97466.59
2018-04-28T12:20:56.342Z,97455.02
2018-04-28T12:23:25.324Z,97458.66
2018-04-28T12:25:53.579Z,97457.86
2018-04-28T12:28:21.832Z,97453.03
2018-04-28T12:30:50.072Z,97452.97
2018-04-28T12:33:19.117Z,97450.48
2018-04-28T12:35:47.358Z,97441.31
2018-04-28T12:38:16.471Z,97449.84
2018-04-28T12:40:45.483Z,97448.75
2018-04-28T12:43:14.507Z,97442.67
2018-04-28T12:45:43.017Z,97443.95
2018-04-28T12:48:11.814Z,97441.83
2018-04-28T12:50:40.492Z,97436.38
2018-04-28T12:53:09.014Z,97426.59
2018-04-28T12:55:37.451Z,97421.73
2018-04-28T12:58:06.044Z,97426.52
2018-04-28T13:00:34.877Z,97417.16
2018-04-28T13:03:04.594Z,97415.52
2018-04-28T13:05:34.031Z,97408.43
2018-04-28T13:08:02.727Z,97405.89
2018-04-28T13:10:30.987Z,97398.99
2018-04-28T13:13:00.748Z,97396.73
2018-04-28T13:15:29.918Z,97397.89
2018-04-28T13:17:58.274Z,97392.98
2018-04-28T13:20:26.511Z,97389.13
2018-04-28T13:22:55.613Z,97392.91
2018-04-28T13:25:23.898Z,97389.58
2018-04-28T13:27:53.533Z,97391.48
2018-04-28T13:30:22.559Z,97394.56
2018-04-28T13:32:50.790Z,97388.55
2018-04-28T13:35:19.065Z,97391.06
2018-04-28T13:37:47.302Z,97376.73
2018-04-28T13:40:16.690Z,97373.28
2018-04-28T13:42:44.992Z,97372.94
2018-04-28T13:45:13.195Z,97370.86
2018-04-28T13:47:42.194Z,97362.59
2018-04-28T13:50:11.625Z,97362.52
2018-04-28T13:52:40.624Z,97363.14
2018-04-28T13:55:09.650Z,97353.84
2018-04-28T13:57:37.890Z,97349.36
2018-04-28T14:00:06.956Z,97345.73
2018-04-28T14:02:35.190Z,97345.11
2018-04-28T14:05:03.447Z,97345.20
2018-04-28T14:07:31.691Z,97333.94
2018-04-28T14:10:00.710Z,97335.47
2018-04-28T14:12:29.716Z,97319.91
2018-04-28T14:14:57.977Z,97330.12
2018-04-28T14:17:26.209Z,97338.61
2018-04-28T14:19:54.479Z,97337.48
2018-04-28T14:22:23.482Z,97328.02
2018-04-28T14:24:52.510Z,97333.16
2018-04-28T14:27:20.743Z,97334.83
2018-04-28T14:29:49.014Z,97327.36
2018-04-28T14:32:17.246Z,97335.31
2018-04-28T14:34:46.303Z,97327.99
2018-04-28T14:37:14.538Z,97326.09
2018-04-28T14:39:43.933Z,97318.07
2018-04-28T14:42:12.176Z,97323.56
2018-04-28T14:44:40.450Z,97317.53
2018-04-28T14:47:08.691Z,97311.09
2018-04-28T14:49:36.939Z,97315.16
2018-04-28T14:52:05.183Z,97309.09
2018-04-28T14:54:33.478Z,97310.71
2018-04-28T14:57:02.479Z,97300.99
2018-04-28T14:59:30.726Z,97307.75
2018-04-28T15:01:58.983Z,97301.14
2018-04-28T15:04:27.240Z,97296.99
2018-04-28T15:06:55.471Z,97300.42
2018-04-28T15:09:23.720Z,97301.53
2018-04-28T15:11:51.958Z,97305.60
2018-04-28T15:14:20.297Z,97303.86
2018-04-28T15:16:48.580Z,97302.73
2018-04-28T15:19:16.779Z,97302.11
2018-04-28T15:21:45.084Z,97301.70
2018-04-28T15:24:13.327Z,97295.18
2018-04-28T15:26:41.600Z,97289.07
2018-04-28T15:29:09.839Z,97295.33
2018-04-28T15:31:38.868Z,97294.15
2018-04-28T15:34:07.140Z,97292.66
2018-04-28T15:36:36.266Z,97293.37
2018-04-28T15:39:06.890Z,97289.74
2018-04-28T15:41:35.910Z,97285.05
2018-04-28T15:44:04.939Z,97291.40
2018-04-28T15:46:33.186Z,97292.41
2018-04-28T15:49:01.430Z,97284.62
2018-04-28T15:51:29.707Z,97284.70
2018-04-28T15:53:57.967Z,97285.73
2018-04-28T15:56:27.084Z,97282.28
2018-04-28T15:58:56.194Z,97277.63
2018-04-28T16:01:25.283Z,97279.22
2018-04-28T16:03:54.398Z,97272.43
2018-04-28T16:06:23.426Z,97271.73
2018-04-28T16:08:51.685Z,97281.34
2018-04-28T16:11:19.947Z,97281.19
2018-04-28T16:13:48.196Z,97269.88
2018-04-28T16:16:16.433Z,97267.95
2018-04-28T16:18:44.681Z,97260.35
2018-04-28T16:21:12.931Z,97263.22
2018-04-28T16:23:41.987Z,97261.64
2018-04-28T16:26:10.285Z,97257.02
2018-04-28T16:28:38.539Z,97260.67
2018-04-28T16:31:07.552Z,97245.62
2018-04-28T16:33:35.816Z,97248.44
2018-04-28T16:36:04.826Z,97251.54
2018-04-28T16:38:33.887Z,97247.69
2018-04-28T16:41:02.152Z,97248.23
2018-04-28T16:43:30.397Z,97252.85
2018-04-28T16:45:58.660Z,97247.20
2018-04-28T16:48:26.902Z,97248.89
2018-04-28T16:50:55.158Z,97250.45
2018-04-28T16:53:24.151Z,97256.81
2018-04-28T16:55:52.407Z,97260.30
2018-04-28T16:58:20.648Z,97266.45
2018-04-28T17:00:48.903Z,97268.09
2018-04-28T17:03:17.141Z,97255.08
2018-04-28T17:05:46.178Z,97258.72
2018-04-28T17:08:14.427Z,97257.33
2018-04-28T17:10:43.462Z,97252.14
2018-04-28T17:13:11.723Z,97256.01
2018-04-28T17:15:40.763Z,97262.06
2018-04-28T17:18:09.004Z,97267.98
2018-04-28T17:20:37.254Z,97279.97
2018-04-28T17:23:05.511Z,97273.59
2018-04-28T17:25:33.782Z,97272.77
2018-04-28T17:28:02.803Z,97276.06
2018-04-28T17:30:31.047Z,97274.98
2018-04-28T17:32:59.325Z,97283.47
2018-04-28T17:35:27.565Z,97277.94
2018-04-28T17:37:56.605Z,97292.93
2018-04-28T17:40:24.839Z,97276.23
2018-04-28T17:42:53.165Z,97282.23
2018-04-28T17:45:21.348Z,97269.06
2018-04-28T17:47:49.597Z,97279.74
2018-04-28T17:50:17.831Z,97272.94
2018-04-28T17:52:46.085Z,97281.33
2018-04-28T17:55:14.329Z,97279.41
2018-04-28T17:57:42.594Z,97275.06
2018-04-28T18:00:10.853Z,97266.55
2018-04-28T18:02:39.911Z,97264.61
2018-04-28T18:05:08.147Z,97269.53
2018-04-28T18:07:37.171Z,97265.48
2018-04-28T18:10:06.170Z,97268.78
2018-04-28T18:12:35.204Z,97272.58
2018-04-28T18:15:03.491Z,97271.72
2018-04-28T18:17:31.740Z,97267.23
2018-04-28T18:19:59.988Z,97275.25
2018-04-28T18:22:28.252Z,97275.72
2018-04-28T18:24:56.494Z,97272.97
2018-04-28T18:27:24.770Z,97275.86
2018-04-28T18:29:52.981Z,97275.59
2018-04-28T18:32:21.246Z,97279.13
2018-04-28T18:34:49.605Z,97266.13
2018-04-28T18:37:17.831Z,97262.20
2018-04-28T18:39:46.885Z,97270.22
2018-04-28T18:42:15.985Z,97264.65
2018-04-28T18:44:44.983Z,97278.60
2018-04-28T18:47:14.038Z,97281.03
2018-04-28T18:49:42.314Z,97286.38
2018-04-28T18:52:10.581Z,97281.88
2018-04-28T18:54:38.843Z,97290.74
2018-04-28T18:57:07.106Z,97301.95
2018-04-28T18:59:36.746Z,97302.95
2018-04-28T19:02:04.991Z,97301.27
2018-04-28T19:04:33.233Z,97303.15
2018-04-28T19:07:01.515Z,97303.08
2018-04-28T19:09:29.752Z,97300.47
2018-04-28T19:11:58.027Z,97313.55
2018-04-28T19:14:27.065Z,97311.16
2018-04-28T19:16:55.324Z,97314.42
2018-04-28T19:19:24.927Z,97314.47
2018-04-28T19:21:53.183Z,97312.58
2018-04-28T19:24:21.535Z,97324.94
2018-04-28T19:26:50.579Z,97323.28
2018-04-28T19:29:18.803Z,97318.87
2018-04-28T19:31:47.823Z,97316.27
2018-04-28T19:34:16.862Z,97316.13
2018-04-28T19:36:45.104Z,97322.52
2018-04-28T19:39:13.366Z,97312.63
2018-04-28T19:41:41.604Z,97341.28
2018-04-28T19:44:09.937Z,97307.93
2018-04-28T19:46:38.173Z,97302.69
2018-04-28T19:49:07.219Z,97303.29
2018-04-28T19:51:35.455Z,97302.10
2018-04-28T19:54:04.847Z,97311.48
2018-04-28T19:56:33.091Z,97309.94
2018-04-28T19:59:01.342Z,97316.05
2018-04-28T20:01:29.582Z,97315.34
2018-04-28T20:03:57.843Z,97315.45
2018-04-28T20:06:26.091Z,97310.89
2018-04-28T20:08:54.342Z,97319.51
2018-04-28T20:11:22.591Z,97319.03
2018-04-28T20:13:51.607Z,97319.56
2018-04-28T20:16:20.689Z,97307.59
2018-04-28T20:18:49.640Z,97315.49
2018-04-28T20:21:17.881Z,97307.35
2018-04-28T20:24:03.911Z,97310.78
2018-04-28T20:26:32.923Z,97342.98
2018-04-28T20:29:01.945Z,97322.61
2018-04-28T20:31:30.185Z,97329.09
2018-04-28T20:33:58.435Z,97329.27
2018-04-28T20:36:26.685Z,97319.84
2018-04-28T20:38:56.296Z,97328.86
2018-04-28T20:41:24.533Z,97311.17
2018-04-28T20:43:52.799Z,97320.43
2018-04-28T20:46:21.800Z,97332.87
2018-04-28T20:48:50.904Z,97332.20
2018-04-28T20:51:19.914Z,97333.61
2018-04-28T20:53:48.949Z,97333.45
2018-04-28T20:56:17.197Z,97332.38
2018-04-28T20:58:45.456Z,97338.53
2018-04-28T21:01:13.704Z,97349.10
2018-04-28T21:03:41.971Z,97343.02
2018-04-28T21:06:10.985Z,97333.48
2018-04-28T21:08:40.008Z,97345.86
2018-04-28T21:11:08.251Z,97339.87
2018-04-28T21:13:36.507Z,97349.80
2018-04-28T21:16:04.747Z,97350.06
2018-04-28T21:18:33.805Z,97348.70
2018-04-28T21:21:02.040Z,97357.47
2018-04-28T21:23:31.086Z,97366.01
2018-04-28T21:25:59.342Z,97380.61
2018-04-28T21:28:28.379Z,97375.53
2018-04-28T21:30:56.619Z,97380.63
2018-04-28T21:33:24.857Z,97390.57
2018-04-28T21:35:53.086Z,97402.84
2018-04-28T21:38:21.346Z,97401.28
2018-04-28T21:40:49.604Z,97390.36
2018-04-28T21:43:17.842Z,97391.96
2018-04-28T21:45:46.100Z,97395.96
2018-04-28T21:48:14.343Z,97403.66
2018-04-28T21:50:42.606Z,97396.06
2018-04-28T21:53:10.860Z,97389.23
2018-04-28T21:55:39.114Z,97378.44
2018-04-28T21:58:08.129Z,97380.73
2018-04-28T22:00:37.155Z,97384.75
2018-04-28T22:03:05.391Z,97388.50
2018-04-28T22:05:33.653Z,97380.47
2018-04-28T22:08:01.890Z,97381.31
2018-04-28T22:10:30.911Z,97386.36
2018-04-28T22:12:59.918Z,97382.75
2018-04-28T22:15:28.928Z,97386.75
2018-04-28T22:17:58.523Z,97393.03
2018-04-28T22:20:26.784Z,97391.02
2018-04-28T22:22:55.781Z,97393.43
2018-04-28T22:25:24.039Z,97403.19
2018-04-28T22:27:52.275Z,97403.98
2018-04-28T22:30:20.526Z,97412.67
2018-04-28T22:32:48.766Z,97417.48
2018-04-28T22:35:17.038Z,97407.98
2018-04-28T22:37:45.265Z,97414.12
2018-04-28T22:40:14.287Z,97403.73
2018-04-28T22:42:44.050Z,97399.05
2018-04-28T22:45:12.306Z,97398.78
2018-04-28T22:47:40.569Z,97403.03
2018-04-28T22:50:09.615Z,97395.30
2018-04-28T22:52:37.854Z,97393.05
2018-04-28T22:55:06.876Z,97395.44
2018-04-28T22:57:35.879Z,97413.74
2018-04-28T23:00:04.889Z,97431.49
2018-04-28T23:02:33.889Z,97444.45
2018-04-28T23:05:03.007Z,97470.23
2018-04-28T23:07:32.170Z,97485.20
2018-04-28T23:10:00.419Z,97501.77
2018-04-28T23:12:28.676Z,97505.23
2018-04-28T23:14:56.926Z,97505.38
2018-04-28T23:17:25.163Z,97499.48
2018-04-28T23:19:54.177Z,97503.89
2018-04-28T23:22:23.180Z,97507.06
2018-04-28T23:24:52.574Z,97522.04
2018-04-28T23:27:20.812Z,97530.04
2018-04-28T23:29:49.062Z,97531.38
2018-04-28T23:32:17.295Z,97514.20
2018-04-28T23:34:45.552Z,97463.44
2018-04-28T23:37:14.682Z,97425.63
2018-04-28T23:39:42.915Z,97435.92
2018-04-28T23:42:11.404Z,97429.52
2018-04-28T23:44:39.579Z,97418.30
2018-04-28T23:47:07.833Z,97412.52
2018-04-28T23:49:36.085Z,97406.48
2018-04-28T23:52:04.326Z,97416.36
2018-04-28T23:54:32.574Z,97420.56
2018-04-28T23:57:00.872Z,97400.80
2018-04-28T23:59:29.862Z,97396.73
